createdAt,value
2022-08-17T00:01:52.299Z,37.15
2022-08-17T00:04:20.206Z,37.03
2022-08-17T00:06:49.083Z,37.70
2022-08-17T00:09:18.359Z,37.03
2022-08-17T00:12:40.599Z,36.60
2022-08-17T00:14:35.197Z,35.90
2022-08-17T00:17:03.781Z,36.85
2022-08-17T00:19:32.576Z,32.28
2022-08-17T00:22:32.472Z,35.58
2022-08-17T00:24:50.026Z,35.58
2022-08-17T00:27:17.300Z,36.30
2022-08-17T00:29:45.813Z,36.75
2022-08-17T00:33:23.257Z,34.20
2022-08-17T00:35:01.152Z,34.75
2022-08-17T00:37:28.175Z,34.95
2022-08-17T00:39:55.351Z,35.28
2022-08-17T00:42:22.581Z,34.05
2022-08-17T00:44:51.300Z,32.83
2022-08-17T00:47:18.606Z,32.92
2022-08-17T00:49:46.260Z,33.00
2022-08-17T00:52:15.514Z,33.50
2022-08-17T00:54:44.481Z,32.97
2022-08-17T00:57:18.725Z,35.15
2022-08-17T01:00:01.588Z,32.45
2022-08-17T01:02:34.363Z,35.25
2022-08-17T01:05:08.333Z,33.38
2022-08-17T01:07:37.891Z,32.53
2022-08-17T01:10:06.564Z,32.05
2022-08-17T01:12:35.259Z,32.55
2022-08-17T01:15:02.555Z,32.50
2022-08-17T01:17:29.695Z,31.70
2022-08-17T01:19:57.476Z,27.73
2022-08-17T01:22:25.533Z,29.92
2022-08-17T01:24:59.742Z,28.90
2022-08-17T01:27:27.281Z,27.30
2022-08-17T01:29:57.808Z,24.88
2022-08-17T01:32:26.142Z,25.45
2022-08-17T01:34:54.257Z,23.98
2022-08-17T01:37:27.849Z,26.20
2022-08-17T01:39:57.170Z,24.90
2022-08-17T01:42:27.214Z,26.02
2022-08-17T01:44:56.647Z,25.80
2022-08-17T01:47:24.407Z,26.88
2022-08-17T01:49:51.486Z,25.15
2022-08-17T01:52:18.717Z,26.52
2022-08-17T01:54:47.487Z,30.63
2022-08-17T01:57:15.257Z,30.15
2022-08-17T01:59:42.815Z,28.40
2022-08-17T02:02:10.576Z,28.63
2022-08-17T02:04:38.176Z,30.58
2022-08-17T02:07:05.341Z,29.27
2022-08-17T02:09:32.476Z,28.67
2022-08-17T02:12:04.829Z,26.65
2022-08-17T02:14:51.165Z,27.58
2022-08-17T02:17:18.403Z,27.65
2022-08-17T02:19:45.518Z,26.65
2022-08-17T02:22:12.764Z,26.88
2022-08-17T02:25:01.075Z,24.13
2022-08-17T02:27:27.853Z,22.27
2022-08-17T02:29:55.101Z,22.30
2022-08-17T02:32:27.738Z,21.90
2022-08-17T02:34:55.884Z,21.63
2022-08-17T02:37:23.062Z,22.35
2022-08-17T02:39:50.268Z,22.55
2022-08-17T02:42:17.941Z,23.02
2022-08-17T02:44:45.088Z,22.23
2022-08-17T02:47:12.341Z,21.63
2022-08-17T02:49:39.794Z,20.50
2022-08-17T02:52:08.094Z,20.77
2022-08-17T02:54:39.654Z,21.83
2022-08-17T02:57:09.418Z,20.45
2022-08-17T02:59:36.602Z,19.38
2022-08-17T03:02:04.670Z,19.45
2022-08-17T03:04:34.901Z,19.25
2022-08-17T03:07:03.123Z,19.85
2022-08-17T03:09:30.395Z,18.42
2022-08-17T03:12:08.517Z,19.27
2022-08-17T03:14:41.432Z,19.20
2022-08-17T03:17:10.026Z,18.17
2022-08-17T03:19:39.639Z,17.58
2022-08-17T03:22:35.415Z,17.55
2022-08-17T03:24:58.366Z,16.73
2022-08-17T03:27:25.602Z,16.88
2022-08-17T03:29:52.971Z,16.88
2022-08-17T03:32:20.612Z,17.08
2022-08-17T03:34:48.019Z,15.95
2022-08-17T03:37:15.221Z,16.08
2022-08-17T03:39:43.246Z,16.35
2022-08-17T03:42:31.365Z,14.75
2022-08-17T03:44:59.647Z,15.32
2022-08-17T03:47:45.559Z,15.77
2022-08-17T03:50:31.813Z,15.57
2022-08-17T03:53:17.727Z,16.30
2022-08-17T03:56:03.554Z,16.95
2022-08-17T03:58:30.915Z,15.38
2022-08-17T04:00:58.575Z,14.80
2022-08-17T04:03:25.671Z,14.90
2022-08-17T04:05:53.012Z,14.18
2022-08-17T04:08:20.384Z,14.00
2022-08-17T04:10:47.830Z,13.30
2022-08-17T04:13:15.075Z,12.70
2022-08-17T04:15:51.359Z,11.05
2022-08-17T04:18:19.126Z,10.88
2022-08-17T04:20:46.641Z,10.60
2022-08-17T04:23:15.145Z,9.88
2022-08-17T04:25:48.276Z,10.48
2022-08-17T04:28:16.540Z,10.93
2022-08-17T04:30:45.147Z,10.40
2022-08-17T04:33:14.339Z,10.70
2022-08-17T04:35:43.447Z,10.70
2022-08-17T04:38:12.192Z,10.48
2022-08-17T04:40:58.182Z,12.10
2022-08-17T04:43:26.364Z,11.98
2022-08-17T04:45:56.663Z,13.32
2022-08-17T04:48:36.327Z,13.85
2022-08-17T04:51:12.369Z,14.60
2022-08-17T04:53:44.074Z,14.15
2022-08-17T04:56:17.051Z,15.98
2022-08-17T04:58:47.586Z,17.33
2022-08-17T05:01:15.629Z,17.33
2022-08-17T05:03:43.191Z,17.52
2022-08-17T05:06:10.935Z,18.42
2022-08-17T05:08:38.736Z,19.08
2022-08-17T05:11:06.068Z,20.13
2022-08-17T05:13:33.287Z,19.85
2022-08-17T05:16:01.329Z,19.58
2022-08-17T05:18:29.436Z,19.15
2022-08-17T05:20:57.051Z,19.73
2022-08-17T05:23:25.603Z,18.60
2022-08-17T05:25:55.732Z,18.08
2022-08-17T05:28:27.445Z,15.45
2022-08-17T05:30:57.092Z,16.48
2022-08-17T05:33:28.978Z,16.05
2022-08-17T05:35:57.417Z,14.32
2022-08-17T05:38:25.564Z,13.73
2022-08-17T05:40:53.376Z,12.50
2022-08-17T05:43:24.919Z,12.55
2022-08-17T05:46:00.991Z,13.23
2022-08-17T05:48:39.621Z,12.02
2022-08-17T05:51:22.006Z,12.52
2022-08-17T05:54:05.126Z,11.48
2022-08-17T05:56:44.072Z,10.88
2022-08-17T05:59:11.117Z,10.57
2022-08-17T06:01:47.600Z,10.57
2022-08-17T06:04:17.496Z,9.25
2022-08-17T06:06:50.708Z,8.10
2022-08-17T06:09:33.847Z,7.50
2022-08-17T06:14:37.941Z,7.10
2022-08-17T06:17:06.937Z,6.53
2022-08-17T06:19:40.210Z,6.97
2022-08-17T06:22:08.970Z,6.75
2022-08-17T06:24:56.671Z,7.22
2022-08-17T06:27:26.871Z,7.20
2022-08-17T06:29:57.088Z,7.93
2022-08-17T06:32:25.141Z,7.70
2022-08-17T06:34:52.523Z,8.07
2022-08-17T06:37:27.159Z,7.75
2022-08-17T06:40:04.179Z,8.02
2022-08-17T06:43:05.460Z,7.28
2022-08-17T06:45:31.211Z,7.57
2022-08-17T06:48:16.062Z,7.20
2022-08-17T06:50:47.015Z,7.70
2022-08-17T06:53:33.043Z,8.27
2022-08-17T06:56:02.918Z,8.23
2022-08-17T06:58:31.348Z,8.43
2022-08-17T07:01:01.649Z,9.52
2022-08-17T07:03:44.179Z,9.00
2022-08-17T07:06:27.161Z,9.13
2022-08-17T07:09:07.187Z,9.48
2022-08-17T07:11:52.496Z,9.32
2022-08-17T07:14:38.879Z,10.55
2022-08-17T07:17:11.036Z,10.77
2022-08-17T07:19:41.051Z,11.53
2022-08-17T07:22:18.148Z,12.40
2022-08-17T07:24:47.847Z,12.10
2022-08-17T07:27:14.995Z,12.50
2022-08-17T07:29:44.478Z,12.05
2022-08-17T07:32:12.280Z,13.38
2022-08-17T07:35:00.159Z,13.63
2022-08-17T07:37:27.571Z,13.02
2022-08-17T07:40:15.609Z,13.05
2022-08-17T07:42:45.134Z,14.05
2022-08-17T07:45:35.090Z,13.63
2022-08-17T07:48:21.205Z,12.98
2022-08-17T07:50:49.453Z,13.48
2022-08-17T07:53:24.976Z,13.95
2022-08-17T07:55:53.862Z,13.45
2022-08-17T07:58:23.478Z,13.50
2022-08-17T08:01:04.905Z,14.10
2022-08-17T08:03:33.954Z,13.68
2022-08-17T08:06:03.001Z,15.25
2022-08-17T08:08:42.364Z,14.15
2022-08-17T08:11:15.280Z,14.80
2022-08-17T08:13:45.266Z,13.90
2022-08-17T08:16:14.954Z,15.45
2022-08-17T08:18:54.560Z,14.70
2022-08-17T08:21:42.321Z,15.23
2022-08-17T08:24:17.291Z,13.98
2022-08-17T08:26:55.404Z,13.38
2022-08-17T08:29:22.612Z,14.45
2022-08-17T08:31:49.836Z,14.73
2022-08-17T08:34:46.351Z,14.30
2022-08-17T08:37:48.438Z,11.68
2022-08-17T08:40:34.460Z,11.27
2022-08-17T08:43:22.815Z,9.88
2022-08-17T08:46:02.228Z,8.15
2022-08-17T08:48:58.085Z,7.55
2022-08-17T08:51:51.697Z,8.05
2022-08-17T08:54:26.398Z,7.72
2022-08-17T08:57:23.313Z,7.50
2022-08-17T08:59:58.017Z,6.53
2022-08-17T09:02:25.938Z,6.78
2022-08-17T09:05:18.313Z,7.55
2022-08-17T09:07:45.428Z,7.60
2022-08-17T09:10:25.364Z,8.00
2022-08-17T09:12:58.200Z,7.40
2022-08-17T09:15:27.646Z,7.85
2022-08-17T09:19:00.388Z,7.53
2022-08-17T09:20:59.861Z,7.93
2022-08-17T09:23:32.938Z,8.65
2022-08-17T09:26:22.867Z,8.80
2022-08-17T09:28:51.601Z,9.20
2022-08-17T09:31:20.939Z,9.38
2022-08-17T09:33:49.400Z,7.75
2022-08-17T09:36:19.674Z,11.55
2022-08-17T09:39:10.104Z,12.65
2022-08-17T09:41:48.550Z,12.30
2022-08-17T09:44:29.875Z,13.23
2022-08-17T09:47:03.336Z,10.98
2022-08-17T09:49:42.795Z,9.98
2022-08-17T09:52:15.763Z,12.18
2022-08-17T09:54:46.044Z,13.52
2022-08-17T09:57:29.758Z,12.00
2022-08-17T10:00:13.645Z,12.85
2022-08-17T10:02:50.488Z,11.48
2022-08-17T10:05:21.795Z,14.65
2022-08-17T10:07:55.948Z,10.57
2022-08-17T10:10:26.703Z,11.60
2022-08-17T10:13:04.882Z,11.82
2022-08-17T10:15:42.925Z,10.13
2022-08-17T10:18:21.647Z,10.55
2022-08-17T10:20:53.092Z,9.30
2022-08-17T10:23:46.820Z,9.50
2022-08-17T10:28:44.748Z,11.25
2022-08-17T10:34:06.088Z,9.75
2022-08-17T10:36:46.016Z,10.52
2022-08-17T10:39:22.448Z,9.05
2022-08-17T10:41:52.626Z,9.77
2022-08-17T10:44:38.454Z,10.75
2022-08-17T10:47:15.513Z,11.50
2022-08-17T10:49:55.956Z,9.77
2022-08-17T10:52:25.112Z,10.13
2022-08-17T10:54:56.710Z,10.25
2022-08-17T10:57:31.976Z,9.70
2022-08-17T11:00:00.364Z,9.32
2022-08-17T11:02:31.441Z,10.40
2022-08-17T11:05:01.320Z,10.65
2022-08-17T11:07:34.947Z,10.90
2022-08-17T11:10:02.826Z,10.93
2022-08-17T11:12:32.872Z,11.13
2022-08-17T11:15:20.184Z,11.30
2022-08-17T11:18:06.769Z,12.55
2022-08-17T11:20:41.641Z,13.40
2022-08-17T11:23:21.977Z,14.25
2022-08-17T11:25:51.368Z,15.70
2022-08-17T11:28:21.195Z,16.25
2022-08-17T11:30:53.074Z,15.77
2022-08-17T11:33:32.759Z,16.45
2022-08-17T11:36:17.936Z,15.65
2022-08-17T11:38:49.838Z,15.65
2022-08-17T11:41:16.947Z,16.98
2022-08-17T11:43:45.784Z,14.63
2022-08-17T11:46:17.850Z,15.98
2022-08-17T11:49:04.669Z,15.60
2022-08-17T11:51:50.371Z,14.70
2022-08-17T11:54:34.401Z,16.05
2022-08-17T11:57:21.413Z,15.73
2022-08-17T11:59:49.000Z,16.17
2022-08-17T12:02:31.622Z,17.30
2022-08-17T12:05:03.252Z,16.92
2022-08-17T12:07:32.870Z,16.10
2022-08-17T12:10:00.626Z,17.65
2022-08-17T12:12:36.017Z,17.13
2022-08-17T12:15:10.704Z,16.88
2022-08-17T12:17:40.767Z,18.60
2022-08-17T12:20:29.827Z,19.08
2022-08-17T12:22:57.853Z,18.95
2022-08-17T12:25:33.056Z,19.15
2022-08-17T12:28:06.046Z,19.05
2022-08-17T12:30:34.639Z,20.85
2022-08-17T12:33:01.687Z,21.42
2022-08-17T12:35:29.639Z,21.63
2022-08-17T12:37:57.940Z,24.08
2022-08-17T12:40:29.763Z,22.77
2022-08-17T12:43:01.986Z,22.27
2022-08-17T12:45:30.767Z,22.73
2022-08-17T12:48:08.566Z,23.38
2022-08-17T12:50:37.091Z,23.70
2022-08-17T12:53:04.239Z,26.55
2022-08-17T12:55:36.600Z,23.63
2022-08-17T12:58:04.029Z,24.35
2022-08-17T13:00:31.201Z,25.40
2022-08-17T13:03:19.569Z,24.98
2022-08-17T13:05:58.246Z,25.05
2022-08-17T13:08:28.579Z,25.38
2022-08-17T13:10:57.104Z,27.33
2022-08-17T13:13:26.614Z,28.02
2022-08-17T13:15:55.614Z,23.63
2022-08-17T13:18:28.917Z,25.42
2022-08-17T13:20:58.199Z,25.42
2022-08-17T13:23:26.195Z,26.85
2022-08-17T13:25:57.735Z,25.98
2022-08-17T13:28:35.682Z,26.67
2022-08-17T13:31:24.117Z,26.58
2022-08-17T13:33:51.215Z,26.65
2022-08-17T13:36:30.196Z,24.83
2022-08-17T13:39:27.566Z,26.67
2022-08-17T13:41:56.061Z,26.98
2022-08-17T13:44:39.039Z,28.17
2022-08-17T13:47:15.656Z,27.65
2022-08-17T13:49:49.201Z,27.48
2022-08-17T13:52:37.902Z,25.38
2022-08-17T13:55:08.710Z,26.50
2022-08-17T13:57:36.784Z,26.40
2022-08-17T14:00:11.668Z,28.05
2022-08-17T14:02:38.772Z,29.67
2022-08-17T14:05:06.754Z,26.67
2022-08-17T14:07:38.598Z,30.92
2022-08-17T14:10:08.426Z,29.73
2022-08-17T14:12:35.998Z,27.10
2022-08-17T14:15:03.140Z,28.83
2022-08-17T14:17:36.318Z,30.08
2022-08-17T14:20:05.611Z,27.85
2022-08-17T14:22:33.640Z,28.77
2022-08-17T14:25:01.666Z,28.75
2022-08-17T14:27:31.847Z,28.02
2022-08-17T14:29:58.964Z,30.63
2022-08-17T14:32:28.131Z,30.48
2022-08-17T14:34:57.684Z,28.90
2022-08-17T14:37:27.059Z,28.30
2022-08-17T14:39:55.822Z,30.70
2022-08-17T14:42:25.791Z,29.77
2022-08-17T14:44:53.940Z,28.55
2022-08-17T14:47:22.184Z,27.23
2022-08-17T14:49:50.167Z,31.10
2022-08-17T14:52:21.713Z,27.77
2022-08-17T14:54:51.351Z,29.25
2022-08-17T14:57:33.329Z,28.65
2022-08-17T15:00:02.082Z,27.75
2022-08-17T15:02:31.113Z,26.55
2022-08-17T15:05:06.176Z,24.65
2022-08-17T15:07:33.281Z,25.48
2022-08-17T15:10:02.032Z,27.02
2022-08-17T15:12:33.183Z,27.67
2022-08-17T15:15:01.549Z,27.90
2022-08-17T15:17:45.186Z,27.40
2022-08-17T15:20:15.196Z,25.38
2022-08-17T15:22:43.665Z,27.52
2022-08-17T15:25:11.625Z,26.65
2022-08-17T15:27:40.162Z,26.83
2022-08-17T15:30:11.354Z,25.83
2022-08-17T15:32:51.377Z,28.20
2022-08-17T15:35:27.536Z,28.20
2022-08-17T15:37:55.950Z,27.17
2022-08-17T15:40:23.010Z,25.55
2022-08-17T15:42:51.087Z,26.92
2022-08-17T15:45:22.491Z,28.05
2022-08-17T15:47:49.714Z,27.17
2022-08-17T15:50:17.462Z,27.77
2022-08-17T15:52:45.179Z,27.73
2022-08-17T15:55:14.227Z,24.83
2022-08-17T15:57:42.267Z,26.98
2022-08-17T16:00:09.923Z,23.92
2022-08-17T16:03:15.325Z,26.48
2022-08-17T16:05:27.398Z,25.70
2022-08-17T16:07:55.779Z,25.10
2022-08-17T16:10:23.076Z,25.73
2022-08-17T16:13:02.161Z,25.80
2022-08-17T16:15:31.137Z,22.40
2022-08-17T16:17:58.669Z,22.50
2022-08-17T16:20:25.715Z,23.48
2022-08-17T16:22:54.201Z,22.88
2022-08-17T16:25:22.705Z,22.45
2022-08-17T16:27:53.801Z,22.42
2022-08-17T16:30:22.407Z,20.70
2022-08-17T16:32:52.135Z,21.75
2022-08-17T16:35:22.026Z,21.77
2022-08-17T16:37:49.573Z,20.17
2022-08-17T16:40:17.798Z,20.42
2022-08-17T16:42:47.988Z,18.63
2022-08-17T16:45:19.641Z,17.42
2022-08-17T16:47:50.218Z,18.75
2022-08-17T16:50:18.750Z,18.42
2022-08-17T16:52:48.422Z,18.52
2022-08-17T16:55:16.969Z,18.77
2022-08-17T16:57:47.526Z,19.17
2022-08-17T17:00:19.489Z,19.65
2022-08-17T17:02:47.688Z,19.65
2022-08-17T17:05:33.741Z,19.60
2022-08-17T17:08:08.030Z,18.73
2022-08-17T17:10:40.564Z,18.27
2022-08-17T17:13:13.780Z,19.00
2022-08-17T17:16:04.110Z,18.95
2022-08-17T17:18:48.156Z,19.52
2022-08-17T17:21:19.789Z,19.77
2022-08-17T17:23:49.735Z,20.02
2022-08-17T17:26:28.890Z,21.65
2022-08-17T17:29:06.116Z,23.33
2022-08-17T17:31:38.401Z,22.35
2022-08-17T17:34:06.624Z,22.42
2022-08-17T17:36:43.147Z,21.55
2022-08-17T17:39:12.644Z,22.48
2022-08-17T17:41:52.030Z,25.02
2022-08-17T17:44:23.746Z,22.98
2022-08-17T17:46:58.563Z,23.70
2022-08-17T17:49:31.764Z,23.30
2022-08-17T17:52:09.495Z,23.40
2022-08-17T17:54:48.597Z,23.15
2022-08-17T17:57:31.662Z,23.48
2022-08-17T18:00:07.065Z,24.80
2022-08-17T18:02:53.076Z,24.42
2022-08-17T18:05:24.007Z,24.25
2022-08-17T18:07:54.634Z,23.50
2022-08-17T18:10:29.790Z,25.08
2022-08-17T18:13:09.615Z,24.88
2022-08-17T18:15:41.276Z,24.52
2022-08-17T18:18:14.365Z,21.67
2022-08-17T18:20:53.075Z,27.05
2022-08-17T18:23:27.603Z,28.20
2022-08-17T18:25:55.648Z,27.20
2022-08-17T18:28:27.882Z,32.25
2022-08-17T18:31:07.103Z,32.85
2022-08-17T18:33:34.735Z,32.40
2022-08-17T18:36:01.825Z,32.10
2022-08-17T18:38:33.828Z,33.20
2022-08-17T18:41:02.893Z,36.47
2022-08-17T18:43:44.104Z,34.00
2022-08-17T18:46:28.149Z,33.40
2022-08-17T18:49:01.341Z,34.75
2022-08-17T18:51:41.426Z,33.00
2022-08-17T18:54:10.316Z,36.28
2022-08-17T18:56:38.986Z,33.85
2022-08-17T18:59:18.644Z,39.60
2022-08-17T19:01:52.462Z,46.47
2022-08-17T19:04:33.873Z,38.85
2022-08-17T19:07:23.960Z,27.02
2022-08-17T19:10:07.866Z,28.98
2022-08-17T19:12:42.787Z,29.80
2022-08-17T19:15:11.366Z,24.70
2022-08-17T19:17:43.140Z,28.75
2022-08-17T19:20:13.698Z,30.33
2022-08-17T19:23:00.107Z,32.10
2022-08-17T19:25:31.625Z,32.88
2022-08-17T19:28:04.173Z,39.58
2022-08-17T19:30:50.510Z,37.05
2022-08-17T19:33:17.859Z,38.58
2022-08-17T19:35:58.311Z,35.50
2022-08-17T19:38:45.843Z,43.00
2022-08-17T19:41:20.685Z,41.42
2022-08-17T19:44:10.540Z,41.50
2022-08-17T19:46:48.736Z,48.88
2022-08-17T19:49:50.014Z,48.05
2022-08-17T19:52:32.483Z,55.88
2022-08-17T19:55:09.923Z,61.53
2022-08-17T19:57:37.176Z,52.72
2022-08-17T20:00:05.548Z,55.92
2022-08-17T20:02:52.571Z,47.88
2022-08-17T20:05:26.627Z,53.08
2022-08-17T20:07:53.720Z,57.83
2022-08-17T20:10:37.980Z,52.65
2022-08-17T20:13:08.921Z,46.92
2022-08-17T20:15:39.907Z,44.35
2022-08-17T20:18:11.209Z,44.95
2022-08-17T20:20:54.493Z,43.40
2022-08-17T20:23:30.304Z,48.35
2022-08-17T20:26:19.304Z,41.70
2022-08-17T20:29:05.578Z,42.10
2022-08-17T20:31:51.547Z,43.88
2022-08-17T20:34:25.019Z,38.60
2022-08-17T20:37:24.349Z,46.08
2022-08-17T20:39:52.639Z,39.13
2022-08-17T20:42:23.031Z,46.33
2022-08-17T20:44:52.362Z,47.90
2022-08-17T20:48:15.210Z,41.60
2022-08-17T20:50:38.308Z,40.95
2022-08-17T20:53:07.291Z,38.38
2022-08-17T20:55:51.894Z,42.83
2022-08-17T20:58:23.675Z,45.58
2022-08-17T21:01:01.798Z,43.83
2022-08-17T21:03:47.914Z,44.35
2022-08-17T21:06:18.041Z,44.78
2022-08-17T21:08:54.787Z,40.83
2022-08-17T21:12:02.835Z,38.55
2022-08-17T21:14:21.199Z,44.65
2022-08-17T21:17:07.102Z,39.63
2022-08-17T21:19:44.398Z,38.28
2022-08-17T21:22:30.953Z,37.53
2022-08-17T21:25:07.814Z,33.97
2022-08-17T21:27:58.916Z,35.00
2022-08-17T21:30:28.738Z,34.45
2022-08-17T21:33:20.114Z,35.00
2022-08-17T21:35:50.362Z,31.00
2022-08-17T21:38:19.686Z,38.55
2022-08-17T21:40:50.286Z,42.38
2022-08-17T21:43:23.811Z,39.80
2022-08-17T21:45:59.253Z,42.42
2022-08-17T21:48:27.513Z,38.03
2022-08-17T21:51:08.361Z,36.13
2022-08-17T21:53:40.872Z,40.63
2022-08-17T21:56:09.163Z,36.07
2022-08-17T21:58:39.860Z,32.30
2022-08-17T22:01:27.569Z,32.88
2022-08-17T22:03:59.581Z,28.38
2022-08-17T22:06:34.393Z,25.67
2022-08-17T22:09:21.946Z,25.55
2022-08-17T22:12:04.614Z,26.80
2022-08-17T22:14:52.108Z,30.63
2022-08-17T22:17:21.057Z,28.45
2022-08-17T22:19:55.264Z,26.83
2022-08-17T22:22:28.640Z,29.15
2022-08-17T22:24:57.912Z,24.42
2022-08-17T22:27:43.608Z,24.85
2022-08-17T22:30:19.505Z,29.70
2022-08-17T22:32:49.782Z,27.60
2022-08-17T22:35:16.898Z,25.90
2022-08-17T22:37:44.779Z,22.98
2022-08-17T22:40:24.292Z,26.90
2022-08-17T22:42:51.610Z,27.98
2022-08-17T22:45:18.751Z,29.48
2022-08-17T22:47:48.743Z,24.10
2022-08-17T22:50:23.029Z,24.20
2022-08-17T22:53:23.615Z,28.60
2022-08-17T22:56:14.261Z,24.13
2022-08-17T22:59:22.261Z,26.92
2022-08-17T23:02:07.846Z,26.20
2022-08-17T23:04:36.628Z,28.67
2022-08-17T23:07:04.823Z,30.80
2022-08-17T23:09:32.276Z,34.25
2022-08-17T23:11:59.650Z,27.08
2022-08-17T23:14:31.714Z,26.23
2022-08-17T23:16:59.750Z,21.10
2022-08-17T23:19:27.290Z,28.08
2022-08-17T23:21:55.788Z,25.40
2022-08-17T23:24:27.612Z,24.92
2022-08-17T23:26:57.286Z,30.17
2022-08-17T23:29:25.760Z,20.52
2022-08-17T23:31:53.362Z,21.40
2022-08-17T23:34:20.477Z,25.60
2022-08-17T23:36:51.327Z,27.73
2022-08-17T23:39:24.490Z,26.67
2022-08-17T23:41:56.873Z,27.95
2022-08-17T23:44:24.639Z,25.85
2022-08-17T23:46:52.206Z,27.63
2022-08-17T23:49:19.925Z,22.08
2022-08-17T23:51:47.793Z,26.00
2022-08-17T23:54:26.831Z,23.98
2022-08-17T23:56:54.616Z,24.77
2022-08-17T23:59:22.984Z,22.00
